• Join FlightAware (Why Join?)
  • Login
  • US Flag 
04:16AM EDT


 

Airport Tracker/Info


-or-


 

Live Flight TrackerFlight Track Log ✈ SWA127 ✈ 03-May-2013 ✈ KMCI - KHOU

Flight Track Log - Related Links

Times and Time Zones

All times are in EDT time to prevent confusion due to time zone crossing. See the SWA127 flight status page for this flight to view local times or setup timezone preferences in your user account.

Time Position Orientation Groundspeed Altitude Reporting Facility
EDT Latitude Longitude Course Direction KTS MPH feet Rate Location/Type
08:49AM 39.3167 -94.7167 360° North 148 170 1,600  Level Kansas City TRACON
08:50AM 39.3500 -94.7167 360° North 163 188 2,700 2,160 Climbing Kansas City TRACON
08:51AM 39.3456 -94.7683 264° West 228 262 4,400 2,340 Climbing Kansas City Center
08:52AM 39.2739 -94.7956 196° South 285 328 7,000 2,700 Climbing Kansas City Center
08:53AM 39.1947 -94.8228 195° South 302 348 10,000 2,580 Climbing Kansas City Center
08:54AM 39.1042 -94.8489 193° South 345 397 12,300 3,300 Climbing Kansas City Center
08:55AM 39.0008 -94.8803 193° South 335 386 16,800 3,300 Climbing Kansas City Center
08:56AM 38.9217 -94.9044 193° South 306 352 19,100 2,100 Climbing Kansas City Center
08:57AM 38.8200 -94.9347 193° South 334 384 21,200 2,040 Climbing Kansas City Center
08:58AM 38.7319 -94.9611 193° South 338 389 23,300 1,800 Climbing Kansas City Center
08:59AM 38.6406 -94.9878 193° South 348 400 24,900 1,320 Climbing Kansas City Center
09:00AM 38.5319 -95.0208 193° South 356 410 26,000 1,380 Climbing Kansas City Center
09:01AM 38.4369 -95.0497 193° South 363 418 27,800 1,560 Climbing Kansas City Center
09:02AM 38.3250 -95.0822 193° South 370 426 29,200 1,320 Climbing Kansas City Center
09:03AM 38.2275 -95.1097 192° South 372 428 30,600 1,320 Climbing Kansas City Center
09:04AM 38.1308 -95.1406 194° South 373 429 31,900 1,260 Climbing Kansas City Center
09:05AM 38.0192 -95.1789 195° South 370 426 33,300 840 Climbing Kansas City Center
09:06AM 37.9272 -95.2114 196° South 375 432 33,700 480 Climbing Kansas City Center
09:07AM 37.8208 -95.2481 195° South 390 449 34,300 720 Climbing Kansas City Center
09:08AM 37.7119 -95.2847 195° South 400 460 35,200 780 Climbing Kansas City Center
09:09AM 37.5822 -95.3281 195° South 401 461 36,000 360 Climbing Kansas City Center
09:10AM 37.4733 -95.3639 195° South 403 464 36,000  Level Kansas City Center
09:11AM 37.3656 -95.4008 195° South 402 463 36,000  Level Kansas City Center
09:12AM 37.2575 -95.4369 195° South 401 461 36,000  Level Kansas City Center
09:13AM 37.1500 -95.4736 195° South 400 460 36,000  Level Kansas City Center
09:14AM 37.0422 -95.5089 195° South 399 459 36,000  Level Kansas City Center
09:15AM 36.9344 -95.5453 195° South 401 461 36,000  Level Kansas City Center
09:16AM 36.8250 -95.5814 195° South 404 465 36,000  Level Kansas City Center
09:17AM 36.7150 -95.6169 195° South 407 468 36,000  Level Kansas City Center
09:18AM 36.5956 -95.6572 195° South 412 474 36,100  Climbing Kansas City Center
09:19AM 36.4828 -95.6947 195° South 416 479 36,000 -60 Descending Kansas City Center
09:20AM 36.3694 -95.7314 195° South 419 482 36,000  Level Kansas City Center
09:21AM 36.2467 -95.7719 195° South 421 484 36,000  Level Kansas City Center
09:22AM 36.1328 -95.8097 195° South 424 488 36,000  Level Kansas City Center
09:23AM 36.0183 -95.8506 196° South 427 491 36,000  Level Kansas City Center
09:24AM 35.9025 -95.8908 196° South 429 494 36,000  Level Kansas City Center
09:25AM 35.7631 -95.9394 196° South 432 497 36,000 -540 Level Kansas City Center
09:26AM 35.6453 -95.9803 196° South 437 503 35,000 -960 Descending Kansas City Center
09:27AM 35.6006 -95.9942 194° South 432 497 34,700 -780 Descending Fort Worth Center
09:28AM 35.4906 -96.0344 197° South 427 491 34,000 -360 Descending Fort Worth Center
09:29AM 35.3825 -96.0717 196° South 416 479 34,000  Level Fort Worth Center
09:30AM 35.2703 -96.1092 195° South 411 473 34,000  Level Fort Worth Center
09:31AM 35.1581 -96.1489 196° South 411 473 34,000  Level Fort Worth Center
09:32AM 35.0436 -96.1886 196° South 417 480 34,000  Level Fort Worth Center
09:33AM 34.9292 -96.2258 195° South 417 480 34,000  Level Fort Worth Center
09:34AM 34.8169 -96.2653 196° South 417 480 34,000  Level Fort Worth Center
09:35AM 34.7047 -96.3022 195° South 417 480 34,000  Level Fort Worth Center
09:36AM 34.5881 -96.3414 195° South 422 486 34,000  Level Fort Worth Center
09:37AM 34.4758 -96.3806 196° South 422 486 34,000  Level Fort Worth Center
09:38AM 34.3594 -96.4197 196° South 427 491 34,000  Level Fort Worth Center
09:39AM 34.2450 -96.4614 197° South 427 491 34,000  Level Fort Worth Center
09:40AM 34.1303 -96.4978 195° South 432 497 34,000  Level Fort Worth Center
09:41AM 34.0139 -96.5364 195° South 437 503 34,000  Level Fort Worth Center
09:42AM 33.8972 -96.5703 194° South 437 503 34,000  Level Fort Worth Center
09:43AM 33.7803 -96.5789 184° South 425 489 34,000  Level Fort Worth Center
09:44AM 33.6553 -96.5875 183° South 439 505 34,000 -60 Level Fort Worth Center
09:45AM 33.5322 -96.5961 183° South 445 512 33,900 -540 Descending Fort Worth Center
09:46AM 33.4089 -96.6047 183° South 445 512 33,000 -960 Descending Fort Worth Center
09:47AM 33.2817 -96.6133 183° South 445 512 32,000 -540 Descending Fort Worth Center
09:48AM 33.1567 -96.6219 183° South 456 525 32,000 -300 Level Fort Worth Center
09:49AM 33.0314 -96.6331 184° South 456 525 31,400 -900 Descending Fort Worth Center
09:50AM 32.9144 -96.6414 183° South 461 531 30,300 -720 Descending Fort Worth Center
09:51AM 32.7808 -96.6500 183° South 449 517 30,000 -180 Descending Fort Worth Center
09:52AM 32.6725 -96.6558 183° South 438 504 30,000  Level Fort Worth Center
09:53AM 32.5389 -96.6667 184° South 438 504 30,000  Level Fort Worth Center
09:54AM 32.4158 -96.6750 183° South 438 504 30,000  Level Fort Worth Center
09:55AM 32.2883 -96.6811 182° South 449 517 30,000  Level Fort Worth Center
09:56AM 32.1653 -96.6919 184° South 454 522 30,000  Level Fort Worth Center
09:57AM 32.0358 -96.7003 183° South 461 531 30,000  Level Fort Worth Center
09:58AM 31.9128 -96.7086 183° South 456 525 30,000  Level Fort Worth Center
09:59AM 31.7189 -96.7050 179° South 459 528 30,000  Level Houston Center
10:00AM 31.5886 -96.6864 173° South 475 547 30,000  Level Houston Center
10:01AM 31.4619 -96.6428 164° South 471 542 30,000 -300 Level Houston Center
10:02AM 31.3322 -96.5969 163° South 476 548 29,400 -780 Descending Houston Center
10:03AM 31.2017 -96.5508 163° South 480 552 28,500 -1,020 Descending Houston Center
10:05AM 31.0692 -96.5047 163° South 486 559 27,400 -780 Descending Houston Center
10:06AM 30.9167 -96.4508 163° South 484 557 27,000 -1,020 Descending Houston Center
10:07AM 30.7881 -96.4078 164° South 477 549 25,400 -2,280 Descending Houston Center
10:08AM 30.6617 -96.3639 163° South 469 540 22,400 -2,940 Descending Houston Center
10:09AM 30.5406 -96.3206 163° South 454 522 19,400 -2,880 Descending Houston Center
10:09AM 30.4350 -96.2864 164° South 436 502 17,000 -2,940 Descending Houston Center
10:11AM 30.3117 -96.2422 163° South 424 488 13,700 -2,820 Descending Houston Center
10:12AM 30.1950 -96.2022 163° South 410 472 11,000 -1,260 Descending Houston Center
10:13AM 30.0958 -96.1472 154° Southeast 396 456 11,000  Level Houston Center
10:14AM 29.9992 -96.0964 156° South 379 436 11,100 -300 Climbing Houston Center
10:15AM 29.9025 -96.0469 156° South 372 428 10,500 -780 Descending Houston Center
10:16AM 29.8206 -95.9711 141° Southeast 331 381 9,400 -960 Descending Houston Center
10:17AM 29.7914 -95.8731 109° East 320 368 8,400 -1,080 Descending Houston Center
10:18AM 29.7625 -95.7886 111° Southeast 313 360 7,500 -1,080 Descending Houston Center
10:19AM 29.7333 -95.6958 110° East 304 350 6,500 -900 Descending Houston Center
10:19AM 29.7306 -95.6889 115° Southeast 306 352 6,400 -540 Descending Houston Center
10:20AM 29.7042 -95.6056 110° East 297 342 6,000 -540 Descending Houston Center
10:20AM 29.6967 -95.5831 111° Southeast 298 343 5,900  Descending Houston Center
10:21AM 29.6678 -95.4947 111° Southeast 296 341 6,000  Climbing Houston Center
10:22AM 29.6461 -95.4272 110° East 291 335 5,900 -120 Descending Houston Center
10:22AM 29.6394 -95.4086 112° Southeast 292 336 5,900 60 Level Houston Center
10:23AM 29.6058 -95.3553 126° Southeast 257 296 6,000 60 Climbing Houston Center
10:23AM 29.5967 -95.3444 134° Southeast 265 305 6,000 -720 Level Houston Center
10:24AM 29.5564 -95.2986 135° Southeast 252 290 5,300 -1,200 Descending Houston Center
10:24AM 29.5467 -95.2892 140° Southeast 257 296 4,800 -2,460 Descending Houston Center
10:25AM 29.5403 -95.2381 98° East 192 221 2,800 -2,520 Descending Houston Center
10:25AM 29.5569 -95.2336 13° North 212 244 2,200 -1,020 Descending Houston Center
10:26AM 29.5856 -95.2278 10° North 120 138 1,800 -1,020 Descending Houston Center
10:26AM 29.5975 -95.2275 North 171 197 1,200 -1,140 Descending Houston Center
10:27AM 29.6144 -95.2436 320° Northwest 113 130 700 -720 Descending Houston Center
10:27AM 29.6222 -95.2519 317° Northwest 137 158 500 -480 Descending Houston Center
10:28AM 29.6428 -95.2767 341° North 128 147 100 -420 Descending Houston Center
10:29AM 29.6333 -95.2667 341° North  Level FlightAware Approximate